createdAt,value
2018-12-26T00:00:43.264Z,20.43
2018-12-26T00:03:11.576Z,23.18
2018-12-26T00:05:39.847Z,23.42
2018-12-26T00:08:27.062Z,22.30
2018-12-26T00:11:14.228Z,24.15
2018-12-26T00:13:42.462Z,26.17
2018-12-26T00:16:10.751Z,26.77
2018-12-26T00:18:39.488Z,23.02
2018-12-26T00:21:09.378Z,24.12
2018-12-26T00:23:37.634Z,25.45
2018-12-26T00:28:41.023Z,25.72
2018-12-26T00:33:56.493Z,27.17
2018-12-26T00:36:25.087Z,31.02
2018-12-26T00:38:55.715Z,25.75
2018-12-26T00:41:23.937Z,26.50
2018-12-26T00:43:52.180Z,26.15
2018-12-26T00:46:20.410Z,25.75
2018-12-26T00:48:49.612Z,31.40
2018-12-26T00:51:36.679Z,28.32
2018-12-26T00:54:16.694Z,27.22
2018-12-26T00:56:45.107Z,25.35
2018-12-26T00:59:15.501Z,26.68
2018-12-26T01:01:44.068Z,26.60
2018-12-26T01:04:12.241Z,26.45
2018-12-26T01:06:40.492Z,27.50
2018-12-26T01:12:16.356Z,26.02
2018-12-26T01:14:44.663Z,31.90
2018-12-26T01:17:35.154Z,25.25
2018-12-26T01:19:42.867Z,27.82
2018-12-26T01:22:11.215Z,29.40
2018-12-26T01:28:05.959Z,28.90
2018-12-26T01:30:34.507Z,29.92
2018-12-26T01:33:05.185Z,26.27
2018-12-26T01:35:33.501Z,27.67
2018-12-26T01:38:01.778Z,29.50
2018-12-26T01:40:48.835Z,29.85
2018-12-26T01:43:17.106Z,31.85
2018-12-26T01:45:47.674Z,29.18
2018-12-26T01:48:16.211Z,33.38
2018-12-26T01:50:44.499Z,30.88
2018-12-26T01:53:12.723Z,32.10
2018-12-26T01:55:40.973Z,33.10
2018-12-26T01:58:09.279Z,31.95
2018-12-26T02:03:43.684Z,31.45
2018-12-26T02:06:11.845Z,27.40
2018-12-26T02:08:40.055Z,27.62
2018-12-26T02:11:08.235Z,33.98
2018-12-26T02:13:38.767Z,36.55
2018-12-26T02:16:06.965Z,30.68
2018-12-26T02:18:35.193Z,35.03
2018-12-26T02:21:03.347Z,31.82
2018-12-26T02:23:31.608Z,34.33
2018-12-26T02:25:59.835Z,35.98
2018-12-26T02:28:46.968Z,31.02
2018-12-26T02:31:15.204Z,31.30
2018-12-26T02:33:45.175Z,34.00
2018-12-26T02:36:13.390Z,35.92
2018-12-26T02:38:41.553Z,32.70
2018-12-26T02:41:09.759Z,31.60
2018-12-26T02:46:45.560Z,28.85
2018-12-26T02:49:14.424Z,31.62
2018-12-26T02:51:42.656Z,33.85
2018-12-26T02:54:10.937Z,34.35
2018-12-26T02:56:46.509Z,29.57
2018-12-26T02:59:09.138Z,28.67
2018-12-26T03:01:37.335Z,34.92
2018-12-26T03:04:05.560Z,36.05
2018-12-26T03:06:33.745Z,34.20
2018-12-26T03:09:33.773Z,34.83
2018-12-26T03:11:50.792Z,32.10
2018-12-26T03:14:19.035Z,34.58
2018-12-26T03:16:47.276Z,38.63
2018-12-26T03:19:35.815Z,31.10
2018-12-26T03:22:04.049Z,32.20
2018-12-26T03:24:51.177Z,34.00
2018-12-26T03:30:39.532Z,36.20
2018-12-26T03:33:07.760Z,32.55
2018-12-26T03:35:36.069Z,32.88
2018-12-26T03:43:59.643Z,34.05
2018-12-26T03:49:35.480Z,34.40
2018-12-26T03:52:06.031Z,34.92
2018-12-26T03:54:35.267Z,35.10
2018-12-26T03:57:06.312Z,35.38
2018-12-26T03:59:33.383Z,32.40
2018-12-26T04:02:20.494Z,31.12
2018-12-26T04:05:07.684Z,35.70
2018-12-26T04:07:36.178Z,31.15
2018-12-26T04:12:58.783Z,38.33
2018-12-26T04:15:26.961Z,29.82
2018-12-26T04:17:55.182Z,32.15
2018-12-26T04:20:23.459Z,36.77
2018-12-26T04:26:01.897Z,33.10
2018-12-26T04:28:30.108Z,34.70
2018-12-26T04:30:58.702Z,33.45
2018-12-26T04:33:26.903Z,31.85
2018-12-26T04:35:55.154Z,31.62
2018-12-26T04:38:23.302Z,33.85
2018-12-26T04:40:53.854Z,33.60
2018-12-26T04:43:22.525Z,35.33
2018-12-26T04:48:54.623Z,32.85
2018-12-26T04:50:54.406Z,31.65
2018-12-26T04:53:22.620Z,31.52
2018-12-26T04:55:50.811Z,33.85
2018-12-26T05:01:07.899Z,31.75
2018-12-26T05:03:36.446Z,32.42
2018-12-26T05:06:04.640Z,34.88
2018-12-26T05:08:52.171Z,32.93
2018-12-26T05:11:20.401Z,31.65
2018-12-26T05:13:48.759Z,33.65
2018-12-26T05:16:36.885Z,36.42
2018-12-26T05:19:05.126Z,34.88
2018-12-26T05:21:33.342Z,36.80
2018-12-26T05:24:01.504Z,33.30
2018-12-26T05:26:29.844Z,35.00
2018-12-26T05:28:57.982Z,36.73
2018-12-26T05:31:26.204Z,33.28
2018-12-26T05:33:54.399Z,34.67
2018-12-26T05:36:22.605Z,37.25
2018-12-26T05:38:50.795Z,35.78
2018-12-26T05:41:40.510Z,32.93
2018-12-26T05:44:08.749Z,31.90
2018-12-26T05:49:44.635Z,33.05
2018-12-26T05:52:12.847Z,36.15
2018-12-26T05:54:41.079Z,32.53
2018-12-26T05:57:09.346Z,33.73
2018-12-26T05:59:37.557Z,34.20
2018-12-26T06:02:05.965Z,32.20
2018-12-26T06:04:34.189Z,34.50
2018-12-26T06:07:02.349Z,34.75
2018-12-26T06:12:11.469Z,31.85
2018-12-26T06:14:39.694Z,32.65
2018-12-26T06:17:07.948Z,32.65
2018-12-26T06:24:53.731Z,32.80
2018-12-26T06:27:21.932Z,39.10
2018-12-26T06:29:50.161Z,35.95
2018-12-26T06:32:37.315Z,34.78
2018-12-26T06:38:07.090Z,37.50
2018-12-26T06:40:35.307Z,33.13
2018-12-26T06:43:03.542Z,34.00
2018-12-26T06:45:31.827Z,32.75
2018-12-26T06:48:07.239Z,32.53
2018-12-26T06:50:35.499Z,35.25
2018-12-26T06:53:03.717Z,36.10
2018-12-26T06:55:31.959Z,33.08
2018-12-26T06:58:00.530Z,36.45
2018-12-26T07:03:09.518Z,34.58
2018-12-26T07:05:37.649Z,37.08
2018-12-26T07:08:05.778Z,37.60
2018-12-26T07:10:33.917Z,34.90
2018-12-26T07:13:02.082Z,37.95
2018-12-26T07:15:30.207Z,38.92
2018-12-26T07:17:58.389Z,38.05
2018-12-26T07:20:26.534Z,37.60
2018-12-26T07:22:54.678Z,38.70
2018-12-26T07:25:22.827Z,40.25
2018-12-26T07:27:50.970Z,43.52
2018-12-26T07:30:19.106Z,39.98
2018-12-26T07:32:47.264Z,39.90
2018-12-26T07:35:15.473Z,35.78
2018-12-26T07:37:43.611Z,40.75
2018-12-26T07:40:11.741Z,38.02
2018-12-26T07:42:39.914Z,38.83
2018-12-26T07:45:08.506Z,37.55
2018-12-26T07:47:36.664Z,38.10
2018-12-26T07:50:05.059Z,41.98
2018-12-26T07:52:33.263Z,37.83
2018-12-26T07:55:01.395Z,38.28
2018-12-26T07:57:29.551Z,38.40
2018-12-26T07:59:57.694Z,38.05
2018-12-26T08:02:25.886Z,40.35
2018-12-26T08:04:54.045Z,38.65
2018-12-26T08:07:22.203Z,40.28
2018-12-26T08:09:50.330Z,37.10
2018-12-26T08:12:18.627Z,43.17
2018-12-26T08:14:46.789Z,37.58
2018-12-26T08:17:14.918Z,38.53
2018-12-26T08:19:43.088Z,40.95
2018-12-26T08:22:11.230Z,39.80
2018-12-26T08:24:39.417Z,37.42
2018-12-26T08:27:07.586Z,38.65
2018-12-26T08:29:37.581Z,38.50
2018-12-26T08:32:05.740Z,41.15
2018-12-26T08:34:33.887Z,40.83
2018-12-26T08:37:02.084Z,40.58
2018-12-26T08:39:30.241Z,38.70
2018-12-26T08:41:58.375Z,38.40
2018-12-26T08:44:26.545Z,43.33
2018-12-26T08:46:54.686Z,42.48
2018-12-26T08:49:22.868Z,39.83
2018-12-26T08:51:51.007Z,40.83
2018-12-26T08:54:19.158Z,41.33
2018-12-26T08:56:47.345Z,44.77
2018-12-26T08:59:15.467Z,38.70
2018-12-26T09:01:43.638Z,42.45
2018-12-26T09:04:11.765Z,39.95
2018-12-26T09:06:39.921Z,42.13
2018-12-26T09:09:08.055Z,39.40
2018-12-26T09:11:36.254Z,38.48
2018-12-26T09:14:04.518Z,38.95
2018-12-26T09:16:32.682Z,41.75
2018-12-26T09:19:00.816Z,41.95
2018-12-26T09:21:28.994Z,39.50
2018-12-26T09:23:57.161Z,41.88
2018-12-26T09:26:25.302Z,39.90
2018-12-26T09:28:53.451Z,41.13
2018-12-26T09:31:21.725Z,39.15
2018-12-26T09:33:49.891Z,38.78
2018-12-26T09:36:18.097Z,43.45
2018-12-26T09:38:46.238Z,39.98
2018-12-26T09:41:14.411Z,41.70
2018-12-26T09:43:42.578Z,39.83
2018-12-26T09:46:10.750Z,41.98
2018-12-26T09:48:38.918Z,44.15
2018-12-26T09:51:07.061Z,40.73
2018-12-26T09:53:35.274Z,42.08
2018-12-26T09:56:03.449Z,45.80
2018-12-26T09:58:31.627Z,45.08
2018-12-26T10:00:59.753Z,42.00
2018-12-26T10:03:27.946Z,39.27
2018-12-26T10:05:56.141Z,44.85
2018-12-26T10:08:24.337Z,43.02
2018-12-26T10:10:52.497Z,40.03
2018-12-26T10:13:20.658Z,41.55
2018-12-26T10:15:48.803Z,39.90
2018-12-26T10:18:16.986Z,44.83
2018-12-26T10:20:45.166Z,42.55
2018-12-26T10:23:13.380Z,38.83
2018-12-26T10:25:41.555Z,45.55
2018-12-26T10:28:09.761Z,43.40
2018-12-26T10:30:37.905Z,46.50
2018-12-26T10:35:39.463Z,42.38
2018-12-26T10:38:07.627Z,44.40
2018-12-26T10:40:54.710Z,45.17
2018-12-26T10:43:22.939Z,43.98
2018-12-26T10:45:51.196Z,48.85
2018-12-26T10:51:09.291Z,45.58
2018-12-26T10:53:37.518Z,46.08
2018-12-26T10:59:22.754Z,42.58
2018-12-26T11:07:32.664Z,40.98
2018-12-26T11:10:08.220Z,48.50
2018-12-26T11:12:36.417Z,48.15
2018-12-26T11:15:07.287Z,47.62
2018-12-26T11:17:37.914Z,50.12
2018-12-26T11:20:07.841Z,46.60
2018-12-26T11:22:36.158Z,47.75
2018-12-26T11:25:07.900Z,47.58
2018-12-26T11:27:36.207Z,49.53
2018-12-26T11:30:12.995Z,44.20
2018-12-26T11:32:43.772Z,43.70
2018-12-26T11:35:14.210Z,45.65
2018-12-26T11:38:01.473Z,44.70
2018-12-26T11:40:29.710Z,44.03
2018-12-26T11:42:57.914Z,45.17
2018-12-26T11:45:28.604Z,46.18
2018-12-26T11:47:59.666Z,46.37
2018-12-26T11:50:46.762Z,48.40
2018-12-26T11:53:15.052Z,48.60
2018-12-26T11:55:43.318Z,44.08
2018-12-26T11:58:30.422Z,48.00
2018-12-26T12:03:58.346Z,48.13
2018-12-26T12:06:20.701Z,48.10
2018-12-26T12:08:48.915Z,47.70
2018-12-26T12:11:36.079Z,44.58
2018-12-26T12:19:25.698Z,45.25
2018-12-26T12:22:12.822Z,40.92
2018-12-26T12:25:00.391Z,38.30
2018-12-26T12:27:28.664Z,41.18
2018-12-26T12:29:59.026Z,38.78
2018-12-26T12:32:28.986Z,43.00
2018-12-26T12:34:57.325Z,42.78
2018-12-26T12:37:25.693Z,44.40
2018-12-26T12:39:53.884Z,41.60
2018-12-26T12:42:41.069Z,41.73
2018-12-26T12:45:09.297Z,43.60
2018-12-26T12:47:56.398Z,42.88
2018-12-26T12:50:43.589Z,42.80
2018-12-26T12:53:11.814Z,45.73
2018-12-26T12:55:41.965Z,43.65
2018-12-26T13:00:57.648Z,47.30
2018-12-26T13:03:26.073Z,45.75
2018-12-26T13:05:54.280Z,42.40
2018-12-26T13:08:22.500Z,41.95
2018-12-26T13:10:51.097Z,44.20
2018-12-26T13:13:19.554Z,42.78
2018-12-26T13:15:47.830Z,43.00
2018-12-26T13:18:16.049Z,39.08
2018-12-26T13:20:45.098Z,40.03
2018-12-26T13:23:13.334Z,45.52
2018-12-26T13:25:41.901Z,41.45
2018-12-26T13:28:10.128Z,43.38
2018-12-26T13:30:38.452Z,37.83
2018-12-26T13:36:14.271Z,43.52
2018-12-26T13:38:42.827Z,45.87
2018-12-26T13:41:11.067Z,39.95
2018-12-26T13:43:39.244Z,34.95
2018-12-26T13:46:07.465Z,38.15
2018-12-26T13:48:54.573Z,35.15
2018-12-26T13:54:10.199Z,35.90
2018-12-26T13:56:38.479Z,38.55
2018-12-26T13:59:25.630Z,37.05
2018-12-26T14:01:56.359Z,37.83
2018-12-26T14:04:25.026Z,37.13
2018-12-26T14:06:55.058Z,34.25
2018-12-26T14:09:23.267Z,35.52
2018-12-26T14:11:51.514Z,33.13
2018-12-26T14:14:19.651Z,36.80
2018-12-26T14:16:47.879Z,35.20
2018-12-26T14:19:16.089Z,36.68
2018-12-26T14:21:44.478Z,37.40
2018-12-26T14:24:12.689Z,33.45
2018-12-26T14:26:40.847Z,30.88
2018-12-26T14:29:09.035Z,36.85
2018-12-26T14:31:37.168Z,34.67
2018-12-26T14:34:05.357Z,34.63
2018-12-26T14:36:33.509Z,38.78
2018-12-26T14:39:01.693Z,34.60
2018-12-26T14:41:29.910Z,37.75
2018-12-26T14:43:58.128Z,34.48
2018-12-26T14:46:26.322Z,34.88
2018-12-26T14:48:54.474Z,32.55
2018-12-26T14:51:26.465Z,37.55
2018-12-26T14:53:52.572Z,40.05
2018-12-26T14:56:20.746Z,38.95
2018-12-26T14:58:49.273Z,35.45
2018-12-26T15:01:17.417Z,40.63
2018-12-26T15:03:45.567Z,35.45
2018-12-26T15:06:13.708Z,40.58
2018-12-26T15:08:41.912Z,39.35
2018-12-26T15:11:10.100Z,32.88
2018-12-26T15:13:38.273Z,35.30
2018-12-26T15:16:06.542Z,37.70
2018-12-26T15:18:34.763Z,35.85
2018-12-26T15:21:02.976Z,35.13
2018-12-26T15:23:31.102Z,37.15
2018-12-26T15:25:59.276Z,33.38
2018-12-26T15:28:27.446Z,39.53
2018-12-26T15:30:55.946Z,35.55
2018-12-26T15:33:24.084Z,37.05
2018-12-26T15:35:52.718Z,37.05
2018-12-26T15:38:20.879Z,34.60
2018-12-26T15:40:49.075Z,34.38
2018-12-26T15:43:17.223Z,34.53
2018-12-26T15:45:45.367Z,36.25
2018-12-26T15:48:13.562Z,36.20
2018-12-26T15:50:41.780Z,33.05
2018-12-26T15:53:09.994Z,34.90
2018-12-26T15:55:38.176Z,34.53
2018-12-26T15:58:06.407Z,35.33
2018-12-26T16:00:37.472Z,33.80
2018-12-26T16:03:04.444Z,32.40
2018-12-26T16:05:32.574Z,32.33
2018-12-26T16:08:00.756Z,33.25
2018-12-26T16:10:28.939Z,31.90
2018-12-26T16:12:57.154Z,33.83
2018-12-26T16:15:25.333Z,32.53
2018-12-26T16:17:53.636Z,30.85
2018-12-26T16:20:21.798Z,37.33
2018-12-26T16:22:49.995Z,37.53
2018-12-26T16:25:18.150Z,34.20
2018-12-26T16:27:46.383Z,34.33
2018-12-26T16:30:14.552Z,33.48
2018-12-26T16:32:42.725Z,33.65
2018-12-26T16:35:10.880Z,34.27
2018-12-26T16:37:39.079Z,32.95
2018-12-26T16:40:07.902Z,35.33
2018-12-26T16:42:36.137Z,32.67
2018-12-26T16:45:04.770Z,32.73
2018-12-26T16:47:32.958Z,29.15
2018-12-26T16:50:01.158Z,32.70
2018-12-26T16:52:29.298Z,36.48
2018-12-26T16:54:57.702Z,31.42
2018-12-26T16:57:25.895Z,32.23
2018-12-26T16:59:54.113Z,35.40
2018-12-26T17:02:22.237Z,31.77
2018-12-26T17:04:50.449Z,33.33
2018-12-26T17:07:18.582Z,30.70
2018-12-26T17:09:46.770Z,33.53
2018-12-26T17:12:14.929Z,33.08
2018-12-26T17:14:43.130Z,40.00
2018-12-26T17:20:18.985Z,33.20
2018-12-26T17:22:47.163Z,35.48
2018-12-26T17:25:15.354Z,37.35
2018-12-26T17:27:43.490Z,35.00
2018-12-26T17:33:06.311Z,35.33
2018-12-26T17:35:34.598Z,32.25
2018-12-26T17:38:16.622Z,34.98
2018-12-26T17:40:51.754Z,33.73
2018-12-26T17:43:19.978Z,34.95
2018-12-26T17:45:48.203Z,36.60
2018-12-26T17:48:16.393Z,34.75
2018-12-26T17:51:03.560Z,35.52
2018-12-26T17:53:52.041Z,34.63
2018-12-26T17:56:39.310Z,34.75
2018-12-26T18:02:21.475Z,32.78
2018-12-26T18:05:08.533Z,34.43
2018-12-26T18:07:36.955Z,33.67
2018-12-26T18:10:05.927Z,31.70
2018-12-26T18:12:34.153Z,34.08
2018-12-26T18:15:02.624Z,37.08
2018-12-26T18:17:30.830Z,32.33
2018-12-26T18:19:59.596Z,34.88
2018-12-26T18:22:27.886Z,33.88
2018-12-26T18:24:56.184Z,38.83
2018-12-26T18:27:24.402Z,37.00
2018-12-26T18:29:54.784Z,35.68
2018-12-26T18:32:23.076Z,32.60
2018-12-26T18:34:51.275Z,34.58
2018-12-26T18:37:38.384Z,31.20
2018-12-26T18:43:17.999Z,31.55
2018-12-26T18:45:46.332Z,34.98
2018-12-26T18:48:14.612Z,29.98
2018-12-26T18:51:02.116Z,31.77
2018-12-26T18:53:49.318Z,31.93
2018-12-26T18:56:17.703Z,32.30
2018-12-26T18:58:45.992Z,27.95
2018-12-26T19:01:14.276Z,29.65
2018-12-26T19:03:44.866Z,28.38
2018-12-26T19:06:13.523Z,28.27
2018-12-26T19:08:41.767Z,31.50
2018-12-26T19:11:10.042Z,32.30
2018-12-26T19:13:38.294Z,32.42
2018-12-26T19:16:25.410Z,27.60
2018-12-26T19:18:54.213Z,40.88
2018-12-26T19:21:22.539Z,35.85
2018-12-26T19:23:50.779Z,39.80
2018-12-26T19:26:19.008Z,30.32
2018-12-26T19:28:47.338Z,30.00
2018-12-26T19:31:15.596Z,31.10
2018-12-26T19:33:43.856Z,30.85
2018-12-26T19:36:12.177Z,29.45
2018-12-26T19:42:00.880Z,31.97
2018-12-26T19:44:29.207Z,28.55
2018-12-26T19:46:57.511Z,30.23
2018-12-26T19:55:16.447Z,29.82
2018-12-26T19:57:44.767Z,31.30
2018-12-26T20:00:13.370Z,31.40
2018-12-26T20:02:41.574Z,29.80
2018-12-26T20:05:28.675Z,30.05
2018-12-26T20:07:59.306Z,35.55
2018-12-26T20:10:27.550Z,31.17
2018-12-26T20:12:55.819Z,28.02
2018-12-26T20:15:23.977Z,28.42
2018-12-26T20:18:11.339Z,33.20
2018-12-26T20:20:58.599Z,30.52
2018-12-26T20:26:29.191Z,32.38
2018-12-26T20:28:47.275Z,31.68
2018-12-26T20:31:15.839Z,33.42
2018-12-26T20:39:17.748Z,27.25
2018-12-26T20:41:46.042Z,29.48
2018-12-26T20:44:14.483Z,28.05
2018-12-26T20:47:23.711Z,27.60
2018-12-26T20:49:52.248Z,33.30
2018-12-26T20:52:39.402Z,27.25
2018-12-26T20:55:07.816Z,28.20
2018-12-26T20:57:36.037Z,27.07
2018-12-26T21:03:19.510Z,29.67
2018-12-26T21:05:49.523Z,28.75
2018-12-26T21:08:18.104Z,25.02
2018-12-26T21:11:17.226Z,26.60
2018-12-26T21:16:17.591Z,26.68
2018-12-26T21:22:12.548Z,28.60
2018-12-26T21:24:41.286Z,28.07
2018-12-26T21:27:09.723Z,23.65
2018-12-26T21:29:40.481Z,24.30
2018-12-26T21:32:14.078Z,27.93
2018-12-26T21:34:39.323Z,29.20
2018-12-26T21:37:07.615Z,25.23
2018-12-26T21:42:44.196Z,25.45
2018-12-26T21:45:15.874Z,28.98
2018-12-26T21:48:02.965Z,25.20
2018-12-26T21:50:50.145Z,25.90
2018-12-26T21:56:14.831Z,26.70
2018-12-26T21:59:02.010Z,26.50
2018-12-26T22:01:30.312Z,23.75
2018-12-26T22:03:58.628Z,30.55
2018-12-26T22:06:27.030Z,25.15
2018-12-26T22:09:14.274Z,25.10
2018-12-26T22:11:42.655Z,26.62
2018-12-26T22:14:11.019Z,25.37
2018-12-26T22:16:39.295Z,25.05
2018-12-26T22:21:42.522Z,28.17
2018-12-26T22:24:10.817Z,23.50
2018-12-26T22:26:43.394Z,25.05
2018-12-26T22:29:22.536Z,26.75
2018-12-26T22:31:51.179Z,21.93
2018-12-26T22:34:22.124Z,23.70
2018-12-26T22:39:58.130Z,27.55
2018-12-26T22:45:16.873Z,25.62
2018-12-26T22:48:04.071Z,26.90
2018-12-26T22:53:27.171Z,24.65
2018-12-26T22:55:55.509Z,24.60
2018-12-26T22:58:23.818Z,23.20
2018-12-26T23:00:54.569Z,25.20
2018-12-26T23:06:30.714Z,25.57
2018-12-26T23:08:58.979Z,24.77
2018-12-26T23:14:03.759Z,22.32
2018-12-26T23:19:26.794Z,21.75
2018-12-26T23:21:55.037Z,23.55
2018-12-26T23:24:23.303Z,21.55
2018-12-26T23:26:51.600Z,25.82
2018-12-26T23:29:19.802Z,22.73
2018-12-26T23:31:48.042Z,22.98
2018-12-26T23:42:38.368Z,20.65
2018-12-26T23:45:06.703Z,30.32
2018-12-26T23:47:54.763Z,22.87
2018-12-26T23:50:23.051Z,23.45
2018-12-26T23:52:51.315Z,27.82
2018-12-26T23:55:38.479Z,24.98
2018-12-26T23:58:07.214Z,26.05
